createdAt,value
2018-11-05T00:05:00.866Z,98.80
2018-11-05T00:15:06.255Z,98.90
2018-11-05T00:25:12.503Z,98.90
2018-11-05T00:35:16.952Z,98.70
2018-11-05T00:45:21.421Z,98.90
2018-11-05T00:55:25.911Z,99.00
2018-11-05T01:05:30.377Z,99.30
2018-11-05T01:15:34.862Z,98.70
2018-11-05T01:25:39.409Z,99.00
2018-11-05T01:35:43.885Z,98.90
2018-11-05T01:45:48.342Z,99.30
2018-11-05T01:55:52.733Z,99.30
2018-11-05T02:06:01.731Z,99.10
2018-11-05T02:16:06.273Z,98.90
2018-11-05T02:26:10.782Z,98.70
2018-11-05T02:36:15.076Z,98.50
2018-11-05T02:46:19.630Z,98.40
2018-11-05T02:56:23.897Z,98.30
2018-11-05T03:06:28.161Z,98.30
2018-11-05T03:16:32.810Z,99.00
2018-11-05T03:26:37.358Z,98.30
2018-11-05T03:36:41.885Z,98.50
2018-11-05T03:46:46.932Z,99.00
2018-11-05T03:56:51.824Z,98.60
2018-11-05T04:06:56.210Z,98.50
2018-11-05T04:17:02.303Z,99.30
2018-11-05T04:27:06.754Z,99.30
2018-11-05T04:37:11.045Z,99.20
2018-11-05T04:47:15.340Z,99.10
2018-11-05T04:57:19.886Z,99.20
2018-11-05T05:07:24.323Z,99.40
2018-11-05T05:17:29.058Z,99.60
2018-11-05T05:27:33.525Z,99.30
2018-11-05T05:37:38.163Z,99.20
2018-11-05T05:47:43.196Z,99.30
2018-11-05T05:57:47.698Z,99.80
2018-11-05T06:07:52.304Z,99.50
2018-11-05T06:17:56.562Z,99.90
2018-11-05T06:28:01.142Z,99.90
2018-11-05T06:38:05.673Z,99.90
2018-11-05T06:48:10.179Z,99.90
2018-11-05T06:58:14.672Z,99.60
2018-11-05T07:08:19.122Z,99.40
2018-11-05T07:18:28.023Z,99.70
2018-11-05T07:28:32.550Z,99.90
2018-11-05T07:38:37.338Z,99.90
2018-11-05T07:48:41.902Z,99.70
2018-11-05T07:58:46.635Z,99.40
2018-11-05T08:08:54.703Z,99.40
2018-11-05T08:18:59.255Z,99.60
2018-11-05T08:29:03.813Z,99.70
2018-11-05T08:39:10.910Z,99.70
2018-11-05T08:49:15.651Z,99.20
2018-11-05T08:59:20.439Z,98.90
2018-11-05T09:09:24.989Z,98.80
2018-11-05T09:19:29.661Z,98.50
2018-11-05T09:29:34.239Z,97.90
2018-11-05T09:39:38.809Z,97.40
2018-11-05T09:49:43.459Z,97.50
2018-11-05T09:59:48.059Z,97.30
2018-11-05T10:09:52.815Z,96.50
2018-11-05T10:19:57.409Z,96.50
2018-11-05T10:30:02.162Z,97.30
2018-11-05T10:40:12.188Z,95.70
2018-11-05T10:50:17.634Z,94.70
2018-11-05T11:00:27.897Z,94.20
2018-11-05T11:10:33.207Z,94.00
2018-11-05T11:20:38.047Z,93.30
2018-11-05T11:30:42.816Z,93.20
2018-11-05T11:40:47.267Z,94.50
2018-11-05T11:50:52.104Z,95.20
2018-11-05T12:00:56.827Z,94.60
2018-11-05T12:11:01.319Z,93.60
2018-11-05T12:21:09.626Z,93.40
2018-11-05T12:31:14.275Z,91.50
2018-11-05T12:41:18.941Z,91.80
2018-11-05T12:51:23.720Z,91.80
2018-11-05T13:01:28.990Z,91.50
2018-11-05T13:11:33.798Z,91.30
2018-11-05T13:21:38.482Z,90.70
2018-11-05T13:31:43.047Z,90.90
2018-11-05T13:41:48.737Z,91.10
2018-11-05T13:51:54.018Z,92.00
2018-11-05T14:01:58.762Z,92.80
2018-11-05T14:12:03.490Z,93.30
2018-11-05T14:22:08.272Z,93.60
2018-11-05T14:32:13.090Z,94.10
2018-11-05T14:42:17.675Z,94.90
2018-11-05T14:52:22.537Z,95.20
2018-11-05T15:02:32.276Z,95.80
2018-11-05T15:12:36.868Z,96.70
2018-11-05T15:22:41.319Z,96.70
2018-11-05T15:32:46.207Z,96.90
2018-11-05T15:42:50.772Z,97.30
2018-11-05T15:52:59.121Z,97.50
2018-11-05T16:03:03.322Z,97.70
2018-11-05T16:13:08.145Z,98.00
2018-11-05T16:23:12.863Z,98.00
2018-11-05T16:33:17.450Z,98.20
2018-11-05T16:43:22.163Z,98.30
2018-11-05T16:53:26.626Z,98.50
2018-11-05T17:03:31.268Z,98.50
2018-11-05T17:13:35.994Z,98.50
2018-11-05T17:23:40.901Z,98.40
2018-11-05T17:33:45.657Z,98.40
2018-11-05T17:43:50.259Z,98.60
2018-11-05T17:53:56.090Z,98.80
2018-11-05T18:04:01.003Z,99.00
2018-11-05T18:14:05.758Z,99.00
2018-11-05T18:24:10.434Z,99.20
2018-11-05T18:34:15.229Z,99.50
2018-11-05T18:44:20.214Z,99.90
2018-11-05T18:54:24.769Z,99.90
2018-11-05T19:04:29.543Z,99.90
2018-11-05T19:14:34.030Z,99.90
2018-11-05T19:24:38.649Z,99.90
2018-11-05T19:34:43.143Z,99.90
2018-11-05T19:44:48.007Z,99.90
2018-11-05T19:54:52.760Z,99.90
2018-11-05T20:04:57.643Z,99.90
2018-11-05T20:15:04.306Z,99.90
2018-11-05T20:25:09.358Z,99.60
2018-11-05T20:35:14.184Z,99.80
2018-11-05T20:45:19.391Z,99.90
2018-11-05T20:55:24.243Z,99.90
2018-11-05T21:05:29.214Z,99.80
2018-11-05T21:15:33.900Z,99.60
2018-11-05T21:25:38.615Z,99.60
2018-11-05T21:35:43.312Z,99.70
2018-11-05T21:45:48.131Z,99.90
2018-11-05T21:55:52.948Z,99.80
2018-11-05T22:05:57.677Z,99.70
2018-11-05T22:16:02.384Z,99.50
2018-11-05T22:26:07.101Z,99.50
2018-11-05T22:36:15.502Z,99.50
2018-11-05T22:46:20.194Z,99.30
2018-11-05T22:56:24.714Z,99.20
2018-11-05T23:06:29.330Z,99.30
2018-11-05T23:16:37.780Z,99.40
2018-11-05T23:26:42.454Z,99.50
2018-11-05T23:36:48.165Z,99.50
2018-11-05T23:46:52.736Z,99.40
2018-11-05T23:56:57.346Z,99.50
